Time;durP1;ratioP1;P1;durP2;ratioP2;P2;SDS_P1;SDS_P2;PMS_P1;PMS_P2;Temp;Humidity;BMP_temperature;BMP_pressure;BME280_temperature;BME280_humidity;BME280_pressure;Samples;Min_cycle;Max_cycle;Signal;HPM_P1;HPM_P2
2022/09/14 00:02:08;;;;;;;3.95;1.98;;;;;;;;;;5020489;28;20150;-75
2022/09/14 00:04:53;;;;;;;3.55;1.90;;;;;;;;;;5026441;28;20083;-75
2022/09/14 00:07:39;;;;;;;4.88;2.05;;;;;;;;;;5002343;28;20037;-75
2022/09/14 00:10:24;;;;;;;4.45;1.80;;;;;;;;;;5028837;28;20044;-75
2022/09/14 00:13:11;;;;;;;3.58;1.95;;;;;;;;;;5012229;28;20056;-78
2022/09/14 00:16:01;;;;;;;4.70;2.13;;;;;;;;;;5021576;28;20026;-75
2022/09/14 00:18:53;;;;;;;6.00;2.30;;;;;;;;;;5023159;28;20026;-75
2022/09/14 00:21:41;;;;;;;4.57;2.03;;;;;;;;;;5031291;28;20191;-76
2022/09/14 00:24:29;;;;;;;4.22;2.35;;;;;;;;;;5015255;28;20021;-75
2022/09/14 00:27:15;;;;;;;4.38;2.33;;;;;;;;;;5021466;28;20055;-76
2022/09/14 00:30:00;;;;;;;5.20;2.10;;;;;;;;;;5026865;28;20666;-75
2022/09/14 00:32:46;;;;;;;3.80;2.00;;;;;;;;;;5023241;28;20072;-85
2022/09/14 00:35:34;;;;;;;3.45;1.67;;;;;;;;;;5025248;28;20108;-86
2022/09/14 00:38:19;;;;;;;6.05;1.98;;;;;;;;;;5027472;28;20044;-85
2022/09/14 00:41:06;;;;;;;3.35;1.92;;;;;;;;;;5025475;28;20025;-85
2022/09/14 00:43:51;;;;;;;3.30;2.08;;;;;;;;;;5019782;28;20038;-85
2022/09/14 00:46:38;;;;;;;4.20;1.85;;;;;;;;;;5019325;28;20485;-84
2022/09/14 00:49:26;;;;;;;2.97;1.90;;;;;;;;;;5030533;28;20022;-76
2022/09/14 00:52:12;;;;;;;3.22;1.88;;;;;;;;;;5032790;28;20029;-84
2022/09/14 00:54:59;;;;;;;5.03;1.83;;;;;;;;;;5030080;28;20171;-85
2022/09/14 00:57:46;;;;;;;4.15;2.58;;;;;;;;;;5014921;28;20152;-85
2022/09/14 01:00:32;;;;;;;3.00;1.77;;;;;;;;;;5024016;28;20037;-85
2022/09/14 01:03:17;;;;;;;6.97;2.50;;;;;;;;;;5026792;28;20430;-88
2022/09/14 01:06:09;;;;;;;2.97;1.88;;;;;;;;;;5028006;28;20028;-75
2022/09/14 01:09:15;;;;;;;2.85;1.65;;;;;;;;;;5022523;28;20087;-86
2022/09/14 01:12:19;;;;;;;5.93;2.33;;;;;;;;;;5021391;28;20033;-85
2022/09/14 01:15:10;;;;;;;5.43;2.13;;;;;;;;;;5008095;28;20405;-85
2022/09/14 01:18:17;;;;;;;4.25;2.17;;;;;;;;;;5027685;28;20048;-85
2022/09/14 01:21:11;;;;;;;4.18;2.03;;;;;;;;;;5013146;28;20087;-86
2022/09/14 01:24:15;;;;;;;4.18;2.42;;;;;;;;;;5021522;28;20060;-70
2022/09/14 01:27:13;;;;;;;4.10;2.13;;;;;;;;;;5006330;28;20029;-85
2022/09/14 01:30:07;;;;;;;7.10;2.90;;;;;;;;;;5016868;28;20057;-85
2022/09/14 01:33:13;;;;;;;7.05;2.67;;;;;;;;;;5019193;28;20520;-84
2022/09/14 01:36:00;;;;;;;9.65;3.13;;;;;;;;;;5019262;28;20021;-84
2022/09/14 01:38:50;;;;;;;6.78;2.97;;;;;;;;;;5021334;28;20104;-84
2022/09/14 01:41:37;;;;;;;9.45;3.55;;;;;;;;;;5023266;28;20018;-69
2022/09/14 01:44:31;;;;;;;11.73;3.67;;;;;;;;;;5029376;28;20033;-77
2022/09/14 01:47:20;;;;;;;11.13;2.97;;;;;;;;;;5019762;28;20113;-84
2022/09/14 01:50:09;;;;;;;12.13;3.28;;;;;;;;;;5020765;28;20091;-84
2022/09/14 01:52:58;;;;;;;8.88;2.85;;;;;;;;;;5018934;28;20405;-83
2022/09/14 01:55:46;;;;;;;9.02;2.78;;;;;;;;;;5021884;28;20017;-81
2022/09/14 01:58:34;;;;;;;8.80;3.05;;;;;;;;;;5026673;28;20304;-82
2022/09/14 02:01:26;;;;;;;8.70;2.63;;;;;;;;;;5023553;28;20022;-80
2022/09/14 02:04:13;;;;;;;8.07;3.20;;;;;;;;;;5017466;28;20041;-82
2022/09/14 02:06:59;;;;;;;8.88;2.95;;;;;;;;;;5023210;28;20048;-81
2022/09/14 02:09:46;;;;;;;9.98;2.85;;;;;;;;;;5018840;28;20141;-80
2022/09/14 02:12:32;;;;;;;9.15;3.25;;;;;;;;;;5019038;28;20072;-81
2022/09/14 02:15:17;;;;;;;11.65;2.80;;;;;;;;;;5015053;28;20113;-80
2022/09/14 02:18:03;;;;;;;9.45;3.25;;;;;;;;;;5011741;28;20109;-80
2022/09/14 02:20:52;;;;;;;9.13;3.35;;;;;;;;;;5012087;28;20025;-70
2022/09/14 02:23:38;;;;;;;8.82;3.05;;;;;;;;;;5014314;28;20022;-76
2022/09/14 02:26:23;;;;;;;7.70;2.65;;;;;;;;;;5015615;28;20574;-73
2022/09/14 02:29:09;;;;;;;13.65;3.17;;;;;;;;;;5023586;28;20053;-74
2022/09/14 02:31:59;;;;;;;6.63;2.50;;;;;;;;;;5020170;28;20033;-73
2022/09/14 02:34:51;;;;;;;11.48;3.33;;;;;;;;;;5023114;28;20026;-72
2022/09/14 02:37:36;;;;;;;7.60;2.50;;;;;;;;;;5022045;28;20029;-82
2022/09/14 02:40:24;;;;;;;8.18;2.92;;;;;;;;;;5029522;28;20029;-76
2022/09/14 02:43:13;;;;;;;4.00;1.83;;;;;;;;;;5022122;28;20026;-75
2022/09/14 02:46:11;;;;;;;4.53;2.13;;;;;;;;;;5024081;28;20030;-75
2022/09/14 02:49:17;;;;;;;2.53;1.98;;;;;;;;;;5018447;28;20449;-74
2022/09/14 02:52:08;;;;;;;3.38;2.05;;;;;;;;;;5021404;28;20473;-74
2022/09/14 02:55:20;;;;;;;6.05;2.22;;;;;;;;;;5022857;28;20033;-74
2022/09/14 02:58:12;;;;;;;5.80;2.55;;;;;;;;;;5014131;28;20146;-71
2022/09/14 03:00:58;;;;;;;5.30;2.50;;;;;;;;;;5024908;28;20029;-83
2022/09/14 03:03:44;;;;;;;5.65;2.38;;;;;;;;;;5018710;28;20083;-84
2022/09/14 03:06:29;;;;;;;4.97;2.58;;;;;;;;;;5017772;28;20020;-84
2022/09/14 03:09:15;;;;;;;5.50;2.58;;;;;;;;;;5026568;28;20522;-84
2022/09/14 03:12:01;;;;;;;7.05;2.75;;;;;;;;;;5015520;28;20056;-84
2022/09/14 03:14:47;;;;;;;4.55;2.40;;;;;;;;;;5017109;28;20038;-75
2022/09/14 03:17:32;;;;;;;3.47;2.00;;;;;;;;;;5028479;28;20392;-74
2022/09/14 03:20:20;;;;;;;7.40;3.17;;;;;;;;;;5007639;28;20044;-73
2022/09/14 03:23:07;;;;;;;5.63;2.30;;;;;;;;;;5027171;28;20056;-74
2022/09/14 03:25:53;;;;;;;5.28;2.60;;;;;;;;;;5021038;28;20036;-74
2022/09/14 03:28:39;;;;;;;4.22;2.10;;;;;;;;;;5020350;28;20520;-73
2022/09/14 03:31:25;;;;;;;5.03;2.40;;;;;;;;;;5028344;28;20026;-73
2022/09/14 03:34:11;;;;;;;4.65;2.38;;;;;;;;;;5024893;28;20344;-69
2022/09/14 03:36:56;;;;;;;6.60;2.72;;;;;;;;;;5018102;28;20014;-69
2022/09/14 03:39:42;;;;;;;4.03;2.22;;;;;;;;;;5021781;28;20044;-70
2022/09/14 03:42:27;;;;;;;5.18;2.22;;;;;;;;;;5015740;28;20037;-70
2022/09/14 03:45:14;;;;;;;5.40;2.42;;;;;;;;;;5023876;28;20026;-70
2022/09/14 03:47:59;;;;;;;5.13;2.58;;;;;;;;;;5023263;28;20025;-69
2022/09/14 03:50:45;;;;;;;3.78;2.60;;;;;;;;;;5025626;28;20517;-85
2022/09/14 03:53:31;;;;;;;7.32;3.38;;;;;;;;;;5026765;28;20067;-76
2022/09/14 03:56:18;;;;;;;6.80;2.80;;;;;;;;;;5023015;28;20033;-70
2022/09/14 03:59:07;;;;;;;6.35;3.25;;;;;;;;;;5016355;28;20018;-71
2022/09/14 04:01:52;;;;;;;4.45;2.90;;;;;;;;;;5031294;28;20379;-70
2022/09/14 04:04:38;;;;;;;6.10;3.00;;;;;;;;;;5028457;28;20030;-70
2022/09/14 04:07:23;;;;;;;5.15;2.60;;;;;;;;;;5022802;28;20018;-69
2022/09/14 04:10:09;;;;;;;8.05;3.08;;;;;;;;;;5023924;28;20387;-70
2022/09/14 04:12:54;;;;;;;5.70;2.63;;;;;;;;;;5017459;28;20072;-75
2022/09/14 04:15:40;;;;;;;4.53;2.60;;;;;;;;;;5019224;28;20037;-74
2022/09/14 04:18:26;;;;;;;4.93;2.38;;;;;;;;;;5016964;28;20536;-74
2022/09/14 04:21:16;;;;;;;4.53;2.50;;;;;;;;;;5025729;28;20026;-73
2022/09/14 04:24:03;;;;;;;5.10;2.95;;;;;;;;;;5022390;28;20049;-75
2022/09/14 04:26:49;;;;;;;5.32;3.15;;;;;;;;;;5024185;28;20092;-74
2022/09/14 04:29:34;;;;;;;5.97;3.08;;;;;;;;;;5029273;28;20037;-74
2022/09/14 04:32:20;;;;;;;9.07;3.63;;;;;;;;;;5023663;28;20029;-74
2022/09/14 04:35:06;;;;;;;5.47;2.85;;;;;;;;;;5032125;28;20076;-73
2022/09/14 04:37:51;;;;;;;5.53;2.50;;;;;;;;;;5020100;28;20572;-73
2022/09/14 04:40:40;;;;;;;6.97;3.03;;;;;;;;;;5016748;28;20036;-73
2022/09/14 04:43:26;;;;;;;6.38;2.83;;;;;;;;;;5022157;28;20392;-73
2022/09/14 04:46:13;;;;;;;5.15;2.55;;;;;;;;;;5019308;28;20052;-74
2022/09/14 04:48:58;;;;;;;6.35;2.78;;;;;;;;;;5019083;28;20049;-84
2022/09/14 04:51:44;;;;;;;4.00;2.67;;;;;;;;;;5027683;28;20025;-83
2022/09/14 04:54:29;;;;;;;5.78;2.85;;;;;;;;;;5007954;28;20042;-84
2022/09/14 04:57:15;;;;;;;8.20;3.38;;;;;;;;;;5032295;28;20033;-86
2022/09/14 05:00:01;;;;;;;6.60;3.70;;;;;;;;;;5030790;28;20030;-87
2022/09/14 05:02:46;;;;;;;5.03;2.72;;;;;;;;;;5028733;28;20033;-85
2022/09/14 05:05:34;;;;;;;8.50;3.25;;;;;;;;;;5031782;28;20025;-74
2022/09/14 05:08:19;;;;;;;4.43;3.22;;;;;;;;;;5030312;28;20025;-81
2022/09/14 05:11:05;;;;;;;4.05;2.42;;;;;;;;;;5030034;28;20035;-81
2022/09/14 05:13:51;;;;;;;4.97;3.28;;;;;;;;;;5013336;28;20037;-81
2022/09/14 05:16:37;;;;;;;6.13;3.38;;;;;;;;;;5026129;28;20060;-80
2022/09/14 05:19:23;;;;;;;7.28;2.83;;;;;;;;;;5019675;28;20331;-83
2022/09/14 05:22:08;;;;;;;5.72;2.50;;;;;;;;;;5019527;28;20108;-81
2022/09/14 05:24:54;;;;;;;7.82;3.33;;;;;;;;;;5015413;28;20040;-74
2022/09/14 05:27:39;;;;;;;3.72;2.42;;;;;;;;;;5018558;28;20040;-76
2022/09/14 05:30:25;;;;;;;6.25;2.65;;;;;;;;;;5009259;28;20112;-76
2022/09/14 05:33:11;;;;;;;4.97;3.33;;;;;;;;;;5029320;28;20424;-75
2022/09/14 05:36:06;;;;;;;7.28;3.22;;;;;;;;;;5026499;28;20389;-78
2022/09/14 05:38:52;;;;;;;7.20;3.10;;;;;;;;;;5026568;28;20117;-76
2022/09/14 05:41:37;;;;;;;9.05;3.38;;;;;;;;;;5028739;28;20071;-86
2022/09/14 05:44:23;;;;;;;8.98;3.38;;;;;;;;;;5014997;28;20091;-75
2022/09/14 05:47:08;;;;;;;6.80;3.50;;;;;;;;;;5017720;28;20097;-74
2022/09/14 05:49:54;;;;;;;6.22;3.60;;;;;;;;;;5017605;28;20496;-75
2022/09/14 05:52:39;;;;;;;6.72;3.53;;;;;;;;;;5018348;28;20072;-74
2022/09/14 05:55:25;;;;;;;7.30;2.95;;;;;;;;;;5009214;28;20107;-75
2022/09/14 05:58:12;;;;;;;8.57;3.30;;;;;;;;;;5014154;28;20040;-74
2022/09/14 06:00:58;;;;;;;5.18;3.53;;;;;;;;;;5020514;28;20069;-70
2022/09/14 06:03:44;;;;;;;5.85;3.25;;;;;;;;;;5004162;28;20022;-77
2022/09/14 06:06:30;;;;;;;6.35;3.63;;;;;;;;;;5007594;28;20389;-82
2022/09/14 06:09:16;;;;;;;5.88;3.17;;;;;;;;;;5022869;28;20026;-79
2022/09/14 06:12:01;;;;;;;6.53;3.38;;;;;;;;;;5019454;28;20056;-79
2022/09/14 06:14:47;;;;;;;8.50;4.32;;;;;;;;;;5019682;28;20033;-81
2022/09/14 06:17:32;;;;;;;6.03;3.33;;;;;;;;;;5002605;28;20018;-79
2022/09/14 06:20:18;;;;;;;6.50;3.47;;;;;;;;;;5019866;28;20032;-79
2022/09/14 06:23:04;;;;;;;8.60;3.40;;;;;;;;;;5015324;28;20117;-78
2022/09/14 06:25:51;;;;;;;5.22;3.30;;;;;;;;;;5005041;28;20463;-75
2022/09/14 06:28:37;;;;;;;4.90;3.28;;;;;;;;;;5009215;28;20091;-76
2022/09/14 06:31:24;;;;;;;6.82;3.65;;;;;;;;;;5008214;28;20029;-78
2022/09/14 06:34:09;;;;;;;4.80;3.50;;;;;;;;;;5001243;28;20557;-80
2022/09/14 06:36:55;;;;;;;8.75;3.47;;;;;;;;;;5018260;28;20022;-81
2022/09/14 06:39:41;;;;;;;9.57;4.10;;;;;;;;;;5024192;28;20025;-73
2022/09/14 06:42:27;;;;;;;6.07;3.30;;;;;;;;;;5013728;28;20030;-75
2022/09/14 06:45:13;;;;;;;10.95;3.80;;;;;;;;;;5022081;28;20068;-77
2022/09/14 06:47:59;;;;;;;7.28;3.50;;;;;;;;;;5011475;28;20492;-77
2022/09/14 06:50:44;;;;;;;5.47;3.10;;;;;;;;;;5001056;28;20037;-76
2022/09/14 06:53:30;;;;;;;5.25;2.90;;;;;;;;;;5002076;28;20596;-76
2022/09/14 06:56:15;;;;;;;8.20;3.75;;;;;;;;;;5002443;28;20037;-80
2022/09/14 06:59:01;;;;;;;4.50;3.08;;;;;;;;;;5026225;28;20029;-82
2022/09/14 07:01:50;;;;;;;5.03;3.20;;;;;;;;;;5005153;28;20104;-79
2022/09/14 07:04:35;;;;;;;6.80;2.70;;;;;;;;;;5022203;28;20089;-79
2022/09/14 07:07:21;;;;;;;5.88;3.22;;;;;;;;;;5011216;28;20033;-79
2022/09/14 07:10:07;;;;;;;5.38;2.78;;;;;;;;;;5013027;28;20505;-77
2022/09/14 07:12:53;;;;;;;9.15;3.65;;;;;;;;;;5017958;28;20772;-76
2022/09/14 07:15:39;;;;;;;6.15;2.83;;;;;;;;;;5013719;28;20037;-82
2022/09/14 07:18:31;;;;;;;5.28;2.67;;;;;;;;;;5018221;28;20413;-77
2022/09/14 07:21:19;;;;;;;4.25;2.60;;;;;;;;;;5021047;28;20040;-82
2022/09/14 07:24:05;;;;;;;6.38;3.08;;;;;;;;;;4996976;28;20017;-82
2022/09/14 07:26:50;;;;;;;7.15;2.75;;;;;;;;;;5011085;28;20022;-80
2022/09/14 07:29:36;;;;;;;5.00;2.60;;;;;;;;;;5003233;28;20022;-82
2022/09/14 07:32:22;;;;;;;7.13;3.05;;;;;;;;;;4999255;28;20036;-81
2022/09/14 07:35:07;;;;;;;5.35;2.80;;;;;;;;;;4999711;28;20505;-81
2022/09/14 07:37:53;;;;;;;7.93;2.72;;;;;;;;;;5018643;28;20024;-82
2022/09/14 07:40:38;;;;;;;5.22;2.50;;;;;;;;;;5011305;28;20046;-83
2022/09/14 07:43:24;;;;;;;4.50;2.28;;;;;;;;;;5018337;28;20556;-83
2022/09/14 07:46:09;;;;;;;7.10;2.55;;;;;;;;;;5016839;28;20030;-82
2022/09/14 07:48:56;;;;;;;8.23;2.78;;;;;;;;;;5011365;28;20018;-82
2022/09/14 07:51:42;;;;;;;3.80;2.88;;;;;;;;;;5002630;28;20025;-78
2022/09/14 07:54:27;;;;;;;4.43;2.40;;;;;;;;;;5014695;28;20481;-83
2022/09/14 07:57:13;;;;;;;6.88;2.33;;;;;;;;;;5005924;28;20049;-82
2022/09/14 07:59:59;;;;;;;9.25;2.47;;;;;;;;;;5004049;28;20034;-82
2022/09/14 08:02:51;;;;;;;6.50;2.28;;;;;;;;;;5006909;28;20029;-88
2022/09/14 08:05:36;;;;;;;6.10;2.10;;;;;;;;;;5003454;28;20025;-82
2022/09/14 08:08:23;;;;;;;5.78;2.17;;;;;;;;;;5011941;28;20039;-81
2022/09/14 08:11:16;;;;;;;5.25;2.40;;;;;;;;;;5002551;28;20036;-82
2022/09/14 08:14:04;;;;;;;6.05;2.00;;;;;;;;;;5016245;28;20325;-80
2022/09/14 08:16:49;;;;;;;4.85;2.08;;;;;;;;;;4999018;28;20461;-80
2022/09/14 08:19:36;;;;;;;7.97;2.38;;;;;;;;;;5006927;28;20087;-81
2022/09/14 08:22:21;;;;;;;3.10;2.08;;;;;;;;;;5019695;28;20037;-80
2022/09/14 08:25:07;;;;;;;4.50;2.20;;;;;;;;;;5002446;28;20459;-77
2022/09/14 08:27:52;;;;;;;7.50;2.92;;;;;;;;;;5014419;28;20119;-69
2022/09/14 08:30:38;;;;;;;5.72;2.13;;;;;;;;;;5014741;28;20636;-75
2022/09/14 08:33:24;;;;;;;4.60;2.40;;;;;;;;;;5016537;28;20041;-72
2022/09/14 08:36:11;;;;;;;5.28;2.22;;;;;;;;;;5025263;28;20070;-73
2022/09/14 08:38:56;;;;;;;6.60;3.05;;;;;;;;;;5026948;28;20036;-76
2022/09/14 08:41:42;;;;;;;2.67;2.03;;;;;;;;;;5018971;28;20036;-74
2022/09/14 08:44:30;;;;;;;5.75;2.45;;;;;;;;;;5017715;28;20025;-74
2022/09/14 08:47:27;;;;;;;4.37;2.33;;;;;;;;;;5020000;28;20065;-70
2022/09/14 08:50:16;;;;;;;4.03;2.10;;;;;;;;;;5020823;28;20018;-68
2022/09/14 08:53:01;;;;;;;6.75;2.88;;;;;;;;;;5021039;28;20049;-69
2022/09/14 08:55:53;;;;;;;6.45;2.30;;;;;;;;;;5017430;28;20338;-68
2022/09/14 08:58:57;;;;;;;5.63;2.45;;;;;;;;;;5013461;28;20114;-69
2022/09/14 09:01:51;;;;;;;11.18;2.83;;;;;;;;;;5022174;28;20025;-69
2022/09/14 09:04:55;;;;;;;4.47;1.90;;;;;;;;;;5016755;28;20445;-71
2022/09/14 09:07:56;;;;;;;3.75;1.92;;;;;;;;;;5020903;28;20060;-64
2022/09/14 09:10:42;;;;;;;5.53;1.70;;;;;;;;;;5022189;28;20036;-62
2022/09/14 09:13:33;;;;;;;5.53;2.63;;;;;;;;;;5018804;28;20113;-65
2022/09/14 09:16:21;;;;;;;3.90;1.98;;;;;;;;;;5020827;28;20465;-64
2022/09/14 09:19:10;;;;;;;3.07;1.73;;;;;;;;;;5019311;28;20539;-64
2022/09/14 09:21:56;;;;;;;5.45;2.60;;;;;;;;;;5024456;28;20349;-70
2022/09/14 09:24:44;;;;;;;5.32;2.25;;;;;;;;;;5022130;28;20040;-70
2022/09/14 09:27:30;;;;;;;4.68;2.15;;;;;;;;;;5018214;28;20030;-70
2022/09/14 09:30:15;;;;;;;3.15;1.40;;;;;;;;;;5020067;28;20140;-69
2022/09/14 09:33:01;;;;;;;4.63;1.80;;;;;;;;;;5012879;28;20481;-71
2022/09/14 09:35:48;;;;;;;5.25;1.95;;;;;;;;;;5018224;28;20044;-69
2022/09/14 09:38:33;;;;;;;5.30;2.05;;;;;;;;;;5022559;28;20032;-68
2022/09/14 09:41:21;;;;;;;5.15;1.92;;;;;;;;;;5022488;28;20033;-69
2022/09/14 09:44:09;;;;;;;4.40;1.83;;;;;;;;;;5019785;28;20414;-69
2022/09/14 09:46:56;;;;;;;3.80;1.50;;;;;;;;;;5018514;28;20405;-71
2022/09/14 09:49:43;;;;;;;3.17;1.50;;;;;;;;;;5025335;28;20603;-70
2022/09/14 09:52:29;;;;;;;5.43;1.90;;;;;;;;;;5024435;28;20029;-71
2022/09/14 09:55:19;;;;;;;5.05;2.10;;;;;;;;;;5019076;28;20551;-71
2022/09/14 09:58:21;;;;;;;3.47;1.70;;;;;;;;;;5018846;28;20346;-70
2022/09/14 10:01:17;;;;;;;2.95;1.40;;;;;;;;;;5017041;28;20037;-72
2022/09/14 10:04:16;;;;;;;5.63;1.88;;;;;;;;;;5013758;28;20018;-64
2022/09/14 10:07:03;;;;;;;3.13;1.75;;;;;;;;;;5005225;28;20026;-63
2022/09/14 10:09:59;;;;;;;3.80;2.05;;;;;;;;;;5015775;28;20021;-63
2022/09/14 10:12:52;;;;;;;6.22;2.25;;;;;;;;;;5024916;28;20480;-62
2022/09/14 10:15:39;;;;;;;2.83;1.75;;;;;;;;;;5020365;28;20032;-62
2022/09/14 10:18:26;;;;;;;4.78;1.70;;;;;;;;;;5026155;28;20037;-68
2022/09/14 10:21:12;;;;;;;6.00;2.13;;;;;;;;;;5015788;28;20069;-65
2022/09/14 10:24:02;;;;;;;4.47;2.03;;;;;;;;;;5024118;28;20048;-67
2022/09/14 10:26:48;;;;;;;7.22;1.92;;;;;;;;;;5017831;28;20069;-64
2022/09/14 10:29:43;;;;;;;2.83;1.65;;;;;;;;;;5018663;28;20044;-69
2022/09/14 10:32:30;;;;;;;3.22;1.67;;;;;;;;;;5014472;28;20108;-77
2022/09/14 10:35:16;;;;;;;3.60;1.55;;;;;;;;;;5021453;28;20041;-80
2022/09/14 10:38:21;;;;;;;4.47;1.67;;;;;;;;;;5010997;28;20508;-84
2022/09/14 10:41:30;;;;;;;5.20;2.03;;;;;;;;;;5014622;28;20037;-77
2022/09/14 10:44:33;;;;;;;5.85;2.33;;;;;;;;;;5028254;28;20354;-79
2022/09/14 10:47:20;;;;;;;3.92;1.50;;;;;;;;;;5026137;28;20034;-78
2022/09/14 10:50:21;;;;;;;3.88;1.85;;;;;;;;;;5029585;28;20021;-78
2022/09/14 10:53:16;;;;;;;3.47;1.55;;;;;;;;;;5019641;28;20144;-81
2022/09/14 10:56:04;;;;;;;4.32;1.52;;;;;;;;;;5027990;28;20088;-81
2022/09/14 10:58:56;;;;;;;5.85;1.90;;;;;;;;;;5007813;28;20028;-76
2022/09/14 11:01:48;;;;;;;3.88;1.92;;;;;;;;;;5005072;28;20025;-83
2022/09/14 11:04:43;;;;;;;3.58;1.60;;;;;;;;;;5024637;28;20400;-76
2022/09/14 11:07:28;;;;;;;2.88;1.83;;;;;;;;;;5014893;28;20060;-74
2022/09/14 11:10:14;;;;;;;2.53;1.52;;;;;;;;;;5020488;28;20053;-64
2022/09/14 11:13:23;;;;;;;3.92;1.75;;;;;;;;;;5024065;28;20025;-65
2022/09/14 11:16:08;;;;;;;;;;;;;;;;;;5023748;28;20153;-75
2022/09/14 11:19:17;;;;;;;3.25;1.90;;;;;;;;;;5021836;28;20280;-72
2022/09/14 11:22:03;;;;;;;;;;;;;;;;;;5017196;28;20052;-71
2022/09/14 11:25:03;;;;;;;6.75;2.30;;;;;;;;;;5020772;28;19975;-73
2022/09/14 11:28:02;;;;;;;3.70;1.58;;;;;;;;;;5007184;28;20021;-72
2022/09/14 11:30:54;;;;;;;3.55;1.92;;;;;;;;;;5019564;28;20014;-67
2022/09/14 11:33:55;;;;;;;6.28;1.80;;;;;;;;;;5015751;28;20045;-66
2022/09/14 11:36:44;;;;;;;5.80;1.63;;;;;;;;;;5015956;28;20053;-69
2022/09/14 11:40:03;;;;;;;3.50;2.10;;;;;;;;;;5014499;28;20021;-69
2022/09/14 11:42:56;;;;;;;3.28;2.17;;;;;;;;;;4972876;28;20104;-69
2022/09/14 11:45:50;;;;;;;3.80;1.52;;;;;;;;;;5015427;28;20080;-69
2022/09/14 11:48:39;;;;;;;3.65;1.90;;;;;;;;;;5014886;28;20563;-69
2022/09/14 11:51:44;;;;;;;4.32;2.10;;;;;;;;;;5015035;28;20014;-67
2022/09/14 11:54:30;;;;;;;6.70;1.90;;;;;;;;;;5016438;28;20079;-63
2022/09/14 11:57:17;;;;;;;3.35;1.67;;;;;;;;;;5017474;28;20030;-67
2022/09/14 12:00:08;;;;;;;7.05;1.85;;;;;;;;;;5010121;28;20489;-70
2022/09/14 12:02:57;;;;;;;6.20;1.85;;;;;;;;;;5016285;28;20507;-65
2022/09/14 12:05:43;;;;;;;5.00;1.88;;;;;;;;;;5015564;28;20037;-68
2022/09/14 12:08:32;;;;;;;4.30;1.65;;;;;;;;;;5007772;28;20117;-70
2022/09/14 12:11:30;;;;;;;4.05;1.55;;;;;;;;;;5015027;28;20119;-68
2022/09/14 12:14:22;;;;;;;4.22;2.05;;;;;;;;;;5026713;28;20045;-68
2022/09/14 12:17:16;;;;;;;4.68;1.67;;;;;;;;;;5017090;28;20030;-72
2022/09/14 12:20:20;;;;;;;5.88;2.20;;;;;;;;;;5023282;28;20470;-68
2022/09/14 12:23:06;;;;;;;5.93;2.20;;;;;;;;;;5021310;28;20383;-69
2022/09/14 12:25:53;;;;;;;4.05;1.55;;;;;;;;;;5018207;28;20087;-78
2022/09/14 12:28:42;;;;;;;2.75;1.83;;;;;;;;;;5020793;28;20022;-74
2022/09/14 12:31:34;;;;;;;4.57;2.10;;;;;;;;;;5022927;28;20025;-66
2022/09/14 12:34:25;;;;;;;2.70;2.10;;;;;;;;;;5014579;28;20124;-66
2022/09/14 12:37:28;;;;;;;6.20;2.03;;;;;;;;;;5025523;28;20030;-66
2022/09/14 12:40:19;;;;;;;6.28;2.20;;;;;;;;;;5021103;28;20116;-65
2022/09/14 12:43:24;;;;;;;4.25;2.67;;;;;;;;;;5031480;28;20555;-65
2022/09/14 12:46:29;;;;;;;5.75;2.13;;;;;;;;;;5023419;28;20048;-75
2022/09/14 12:49:33;;;;;;;3.95;2.25;;;;;;;;;;5001930;28;20113;-65
2022/09/14 12:52:31;;;;;;;4.05;1.75;;;;;;;;;;5023169;28;20052;-66
2022/09/14 12:55:40;;;;;;;4.55;2.45;;;;;;;;;;5023938;28;20536;-66
2022/09/14 12:58:25;;;;;;;5.93;2.15;;;;;;;;;;5004397;28;20479;-67
2022/09/14 13:01:23;;;;;;;3.67;1.58;;;;;;;;;;5021998;28;20101;-66
2022/09/14 13:04:13;;;;;;;5.68;2.00;;;;;;;;;;5023000;28;20096;-76
2022/09/14 13:06:59;;;;;;;6.13;2.13;;;;;;;;;;5011147;28;20539;-64
2022/09/14 13:09:46;;;;;;;3.90;2.25;;;;;;;;;;5023991;28;20032;-66
2022/09/14 13:12:43;;;;;;;7.93;2.53;;;;;;;;;;5017541;28;20520;-65
2022/09/14 13:15:31;;;;;;;3.75;1.98;;;;;;;;;;5017736;28;20054;-66
2022/09/14 13:18:16;;;;;;;4.57;2.75;;;;;;;;;;5021297;28;20503;-66
2022/09/14 13:21:03;;;;;;;4.82;2.17;;;;;;;;;;5021240;28;20485;-67
2022/09/14 13:23:49;;;;;;;3.72;2.00;;;;;;;;;;5023910;28;20393;-64
2022/09/14 13:26:36;;;;;;;5.07;2.30;;;;;;;;;;5021242;28;20048;-77
2022/09/14 13:29:23;;;;;;;2.95;1.95;;;;;;;;;;5022941;28;20084;-76
2022/09/14 13:32:12;;;;;;;6.25;1.98;;;;;;;;;;5017696;28;20025;-81
2022/09/14 13:34:58;;;;;;;;;;;;;;;;;;5026085;28;20064;-75
2022/09/14 13:37:43;;;;;;;5.00;2.00;;;;;;;;;;5012474;28;19909;-78
2022/09/14 13:40:30;;;;;;;6.25;2.15;;;;;;;;;;5022322;28;20022;-67
2022/09/14 13:43:16;;;;;;;5.03;2.03;;;;;;;;;;5019600;28;20030;-73
2022/09/14 13:46:04;;;;;;;5.40;2.10;;;;;;;;;;5017701;28;20092;-74
2022/09/14 13:48:51;;;;;;;5.43;1.95;;;;;;;;;;5024553;28;20026;-74
2022/09/14 13:51:36;;;;;;;6.22;2.22;;;;;;;;;;5019642;28;20408;-72
2022/09/14 13:54:22;;;;;;;3.50;1.52;;;;;;;;;;5013476;28;20100;-73
2022/09/14 13:57:12;;;;;;;3.72;2.05;;;;;;;;;;5024939;28;20061;-73
2022/09/14 14:00:12;;;;;;;4.03;1.80;;;;;;;;;;5016796;28;20117;-76
2022/09/14 14:03:00;;;;;;;2.17;1.48;;;;;;;;;;5015116;28;20033;-66
2022/09/14 14:05:46;;;;;;;4.65;1.80;;;;;;;;;;5018555;28;20025;-66
2022/09/14 14:08:33;;;;;;;5.43;1.88;;;;;;;;;;5018241;28;20057;-66
2022/09/14 14:11:29;;;;;;;3.30;1.77;;;;;;;;;;5024611;28;20108;-66
2022/09/14 14:14:15;;;;;;;3.03;1.80;;;;;;;;;;5018255;28;20042;-66
2022/09/14 14:17:20;;;;;;;2.53;1.17;;;;;;;;;;5019385;28;20552;-67
2022/09/14 14:20:24;;;;;;;2.90;1.58;;;;;;;;;;5010797;28;20037;-65
2022/09/14 14:23:10;;;;;;;2.28;1.33;;;;;;;;;;5022222;28;20034;-65
2022/09/14 14:26:05;;;;;;;2.05;1.45;;;;;;;;;;5020588;28;20409;-63
2022/09/14 14:28:50;;;;;;;2.38;1.20;;;;;;;;;;5022392;28;20026;-64
2022/09/14 14:31:36;;;;;;;5.28;1.27;;;;;;;;;;5017456;28;20481;-66
2022/09/14 14:34:26;;;;;;;3.55;1.45;;;;;;;;;;5021611;28;20041;-65
2022/09/14 14:37:12;;;;;;;3.78;1.20;;;;;;;;;;5019437;28;20034;-69
2022/09/14 14:39:57;;;;;;;5.47;1.67;;;;;;;;;;5024867;28;20034;-75
2022/09/14 14:42:43;;;;;;;2.42;1.30;;;;;;;;;;5028760;28;20021;-72
2022/09/14 14:45:30;;;;;;;2.97;1.63;;;;;;;;;;5020191;28;20152;-74
2022/09/14 14:48:17;;;;;;;5.15;1.67;;;;;;;;;;5014323;28;20026;-73
2022/09/14 14:51:02;;;;;;;4.07;2.08;;;;;;;;;;5022997;28;20033;-73
2022/09/14 14:53:48;;;;;;;10.45;2.17;;;;;;;;;;5015505;28;20068;-74
2022/09/14 14:56:34;;;;;;;2.63;1.90;;;;;;;;;;5022591;28;20069;-65
2022/09/14 14:59:19;;;;;;;4.10;1.40;;;;;;;;;;5019360;28;20040;-67
2022/09/14 15:02:05;;;;;;;3.00;1.23;;;;;;;;;;5018997;28;20025;-67
2022/09/14 15:04:51;;;;;;;6.32;2.08;;;;;;;;;;5025107;28;20412;-67
2022/09/14 15:07:37;;;;;;;11.02;1.48;;;;;;;;;;5012865;28;20053;-68
2022/09/14 15:10:24;;;;;;;2.45;1.30;;;;;;;;;;5016947;28;20080;-67
2022/09/14 15:13:11;;;;;;;6.82;1.40;;;;;;;;;;5021085;28;20045;-78
2022/09/14 15:15:56;;;;;;;1.17;1.08;;;;;;;;;;5017079;28;20615;-72
2022/09/14 15:18:42;;;;;;;1.88;1.30;;;;;;;;;;5019894;28;20034;-75
2022/09/14 15:21:28;;;;;;;3.75;1.20;;;;;;;;;;5019876;28;20030;-74
2022/09/14 15:24:13;;;;;;;1.85;1.10;;;;;;;;;;5020057;28;20025;-73
2022/09/14 15:26:59;;;;;;;1.80;1.10;;;;;;;;;;5023480;28;20080;-75
2022/09/14 15:29:44;;;;;;;2.22;1.23;;;;;;;;;;5019558;28;20137;-73
2022/09/14 15:32:30;;;;;;;1.65;1.00;;;;;;;;;;5006042;28;20264;-66
2022/09/14 15:35:16;;;;;;;2.65;1.70;;;;;;;;;;5020518;28;20220;-66
2022/09/14 15:38:01;;;;;;;3.17;1.25;;;;;;;;;;5017710;28;20032;-67
2022/09/14 15:40:47;;;;;;;3.13;1.35;;;;;;;;;;5018692;28;20447;-67
2022/09/14 15:43:33;;;;;;;2.67;1.40;;;;;;;;;;5022286;28;20075;-65
2022/09/14 15:46:18;;;;;;;1.70;1.02;;;;;;;;;;5008989;28;20160;-65
2022/09/14 15:49:05;;;;;;;2.97;1.15;;;;;;;;;;5030076;28;20095;-72
2022/09/14 15:51:52;;;;;;;6.32;1.85;;;;;;;;;;5024702;28;20030;-68
2022/09/14 15:54:38;;;;;;;1.65;0.88;;;;;;;;;;5031026;28;20046;-66
2022/09/14 15:57:23;;;;;;;1.58;1.20;;;;;;;;;;5025898;28;20033;-69
2022/09/14 16:00:11;;;;;;;5.20;2.38;;;;;;;;;;5024877;28;20030;-68
2022/09/14 16:02:56;;;;;;;3.20;1.27;;;;;;;;;;5022937;28;20152;-67
2022/09/14 16:05:42;;;;;;;2.03;1.20;;;;;;;;;;5015604;28;20114;-69
2022/09/14 16:08:27;;;;;;;1.30;1.13;;;;;;;;;;5018177;28;20175;-74
2022/09/14 16:11:13;;;;;;;2.00;0.98;;;;;;;;;;5022406;28;20352;-65
2022/09/14 16:13:59;;;;;;;2.78;1.30;;;;;;;;;;5026795;28;20112;-64
2022/09/14 16:16:45;;;;;;;2.55;1.23;;;;;;;;;;5028084;28;20017;-67
2022/09/14 16:19:30;;;;;;;1.88;1.17;;;;;;;;;;5022779;28;20036;-66
2022/09/14 16:22:16;;;;;;;4.25;1.48;;;;;;;;;;5020055;28;20056;-65
2022/09/14 16:25:01;;;;;;;1.27;0.85;;;;;;;;;;5034987;28;20313;-65
2022/09/14 16:27:47;;;;;;;4.05;1.48;;;;;;;;;;5033636;28;20075;-70
2022/09/14 16:30:33;;;;;;;1.42;1.00;;;;;;;;;;5031333;28;20400;-66
2022/09/14 16:33:18;;;;;;;2.42;1.60;;;;;;;;;;5033062;28;20037;-67
2022/09/14 16:36:08;;;;;;;2.45;1.55;;;;;;;;;;5031408;28;20032;-66
2022/09/14 16:38:55;;;;;;;4.28;1.17;;;;;;;;;;5031885;28;20032;-69
2022/09/14 16:41:41;;;;;;;2.63;1.60;;;;;;;;;;5031652;28;20485;-65
2022/09/14 16:44:27;;;;;;;8.40;2.78;;;;;;;;;;5032609;28;20029;-70
2022/09/14 16:47:13;;;;;;;6.57;1.95;;;;;;;;;;5033965;28;20026;-71
2022/09/14 16:49:58;;;;;;;4.43;1.63;;;;;;;;;;5026958;28;20516;-70
2022/09/14 16:52:44;;;;;;;4.68;1.80;;;;;;;;;;5026860;28;20472;-69